Aérodrome :
LOGIN :

S'inscrire | Disclaimer

   EN    FR    IT 

 










Légende :    VFR   VFR Marginal   IFR   IFR Intensif   IFR Très Intensif
Visi : 
Plafond : 
>= 8 km
>= 3000ft
5 à 8 km
1000 à 3000 ft
1500m à 5 km
500 à 1000 ft
800 à 1500m
200 à 500 ft
< 800m
< 200 ft
Symboles :   Orages  Brouillard  Fortes neiges  Fortes précipitations  Vent > 20 kt
SIGMETs :   Divers  Orages  Givrage  Turbulence  Onde Orograph.  Cendres Volcan.






- Altitude de l'aérodrome : 183 ft
- Code IATA : HAJ


EDDV - Hanover/Langenhagen Int.

DERNIER METAR :
  • 131020Z VRB03KT CAVOK 22/09 Q1024 NOSIG

METARs EXPIRÉS :
  • 130950Z VRB04KT CAVOK 21/08 Q1024 NOSIG
  • 130920Z VRB04KT CAVOK 21/08 Q1024 NOSIG
  • 130850Z 29005KT 230V330 9999 FEW044 21/09 Q1024 NOSIG
  • 130820Z 25002KT CAVOK 20/09 Q1025 NOSIG
  • 130750Z VRB02KT CAVOK 19/09 Q1025 NOSIG

TAF TAF EDDV
Valide du 13 à 06h jusqu'au 14 à 06h UTC


130500Z 1306/1406 VRB03KT CAVOK
TEMPO 1311/1318 26005KT



MET'MAP, la Météo Aéronautique d'un coup d'oeil ! - Copyright ORBIFLY Décembre 2007 - Disclaimer

ORBIFLY MET'MAP TEAM :

Programmation & Développement : Alexandra Zaïnal
Sur une idée originale de : Baudouin d'Aumeries
Assistance à la programmation : Marc-Olivier Méhu
Soutien technique & logistique : Manuel Goepfert

Contact : metmap@orbifly.com




SOURCES & CREDITS :

   NOAA